METAR v bližini

 

LIPQ - Ronchi Legionari, Italy
Oddaljenost od postaje: JZ 35km
Podatki zajeti: 19/07/2018 11:20
Jasno
Jasno
 Veter iz smeri Z
Veter: Z 6 km/h
Temperatura: 30°C
Toplotni indeks: 31°C
Temp. rosišča: 19°C
Vlažnost: 52%
Tlak: 1012 hPa
Stanje: Jasno
Vidljivost: večja od 10 km
2018/07/19 09:20 LIPQ 190920Z 28003KT 230V360 CAVOK 30/19 Q1012
LIVT - Trieste, Italy
Oddaljenost od postaje: J 49km
Podatki zajeti: 19/07/2018 10:55
Jasno
Jasno
 Veter iz smeri calm
Veter: Tišina
Temperatura: 26°C
Temp. rosišča: 20°C
Vlažnost: 70%
Tlak: 1012 hPa
Stanje: Jasno
Vidljivost: večja od 10 km
2018/07/19 08:55 LIVT 190855Z 00000KT CAVOK 26/20 Q1012 RMK FEW FEW200 QUK 0 QUL 0 VIS MAR 20 KM VIS MIN 9999
 
LIVO - Tarvisio, Italy
Oddaljenost od postaje: SSZ 49km
Podatki zajeti: 19/07/2018 10:55
Jasno
Jasno
 Veter iz smeri VJV
Veter: VJV 6 km/h
Temperatura: 24°C
Temp. rosišča: 12°C
Vlažnost: 47%
Tlak: 1016 hPa
Stanje: Jasno
Vidljivost: večja od 10 km
2018/07/19 08:55 LIVO 190855Z 11003KT CAVOK 24/12 Q1016 RMK SKC VIS MIN 9999
LIPI - Rivolto (it-Afb), Italy
Oddaljenost od postaje: ZJZ 57km
Podatki zajeti: 19/07/2018 10:55
Jasno
Jasno
 Veter iz smeri spremenljiv
Veter: spremenljiv 0 km/h
Temperatura: 29°C
Toplotni indeks: 29°C
Temp. rosišča: 18°C
Vlažnost: 51%
Tlak: 1013 hPa
Stanje: Jasno
Vidljivost: večja od 10 km
2018/07/19 08:55 LIPI 190855Z /////KT CAVOK 29/18 Q1013 RMK FEW FEW200 VIS MIN 9999 WIND THR06 14005KT WIND THR24 08003KT BLU
 
LJLJ - Ljubljana/Brnik, Slovenia
Oddaljenost od postaje: VSV 59km
Podatki zajeti: 19/07/2018 11:30
Rahlo oblačno
Rahlo oblačno
 Veter iz smeri VSV
Veter: VSV 6 km/h
Temperatura: 25°C
Temp. rosišča: 17°C
Vlažnost: 61%
Tlak: 1015 hPa
Oblačnost: Rahlo oblačno
Vidljivost: 10 km
Podrobnosti o oblakih: Rahlo oblačno 1524 m
2018/07/19 09:30 LJLJ 190930Z 07003KT 360V170 9999 FEW050 25/17 Q1015 NOSIG
LJPZ - Portoroz, Slovenia
Oddaljenost od postaje: J 68km
Podatki zajeti: 19/07/2018 11:30
Jasno
Jasno
 Veter iz smeri ZSZ
Veter: ZSZ 15 km/h
Temperatura: 29°C
Toplotni indeks: 31°C
Temp. rosišča: 20°C
Vlažnost: 58%
Tlak: 1012 hPa
Stanje: Jasno
Vidljivost: večja od 10 km
2018/07/19 09:30 LJPZ 190930Z 30008KT CAVOK 29/20 Q1012
 
LOWK - Klagenfurt(Civ/M, Austria
Oddaljenost od postaje: SV 78km
Podatki zajeti: 19/07/2018 11:20
Rahlo oblačno
Rahlo oblačno
 Veter iz smeri spremenljiv
Veter: spremenljiv 4 km/h
Temperatura: 26°C
Temp. rosišča: 12°C
Vlažnost: 42%
Tlak: 1016 hPa
Oblačnost: Rahlo oblačno
Vidljivost: 10 km
Podrobnosti o oblakih: Rahlo oblačno 2134 m
2018/07/19 09:20 LOWK 190920Z VRB02KT 9999 FEW070 26/12 Q1016 NOSIG
LIYW - Aviano (usaf), Italy
Oddaljenost od postaje: Z 86km
Podatki zajeti: 20/10/2015 15:58
Ni posodobljen
Jasno
Jasno
 Veter iz smeri JJZ
Veter: JJZ 6 km/h
Temperatura: 17°C
Temp. rosišča: 3°C
Vlažnost: 39%
Tlak: 1016.3 hPa
Oblačnost: Jasno
Vidljivost: 10 km
2015/10/20 13:58 LIYW 201358Z AUTO 21003KT 9999 CLR 17/03 A3001 RMK AO2 SLP167 T01660029
 
LIPA - Aviano (it/Us-Af, Italy
Oddaljenost od postaje: Z 89km
Podatki zajeti: 19/07/2018 10:55
Rahlo oblačno
Rahlo oblačno
 Veter iz smeri JJV
Veter: JJV 6 km/h
Temperatura: 28°C
Toplotni indeks: 30°C
Temp. rosišča: 21°C
Vlažnost: 66%
Tlak: 1013 hPa
Oblačnost: Rahlo oblačno
Vidljivost: 10 km
Podrobnosti o oblakih: Rahlo oblačno 1524 m
2018/07/19 08:55 LIPA 190855Z 16003KT 9999 FEW050 28/21 Q1013 RMK FEW VIS MIN 9999 WIND THR05 16003KT WIND THR23 23003KT A2993 BLU
LDRI - Rijeka/Omisalj, Croatia
Oddaljenost od postaje: JV 115km
Podatki zajeti: 19/07/2018 11:30
Rahlo oblačno
Rahlo oblačno
 Veter iz smeri Z
Veter: Z 6 km/h
Temperatura: 28°C
Toplotni indeks: 28°C
Temp. rosišča: 17°C
Vlažnost: 51%
Tlak: 1013 hPa
Oblačnost: Rahlo oblačno
Vidljivost: 10 km
Podrobnosti o oblakih: Rahlo oblačno 1433 m
2018/07/19 09:30 LDRI 190930Z 27003KT 220V350 9999 FEW047 28/17 Q1013
 
LIPZ - Venezia/Tessera, Italy
Oddaljenost od postaje: ZJZ 127km
Podatki zajeti: 19/07/2018 11:20
Jasno
Jasno
 Veter iz smeri SV
Veter: SV 9 km/h
Temperatura: 27°C
Toplotni indeks: 29°C
Temp. rosišča: 22°C
Vlažnost: 74%
Tlak: 1013 hPa
Stanje: Jasno
Vidljivost: večja od 10 km
2018/07/19 09:20 LIPZ 190920Z 05005KT 020V090 CAVOK 27/22 Q1013 NOSIG
LDPL - Pula, Croatia
Oddaljenost od postaje: J 133km
Podatki zajeti: 19/07/2018 11:30
Jasno
Jasno
 Veter iz smeri spremenljiv
Veter: spremenljiv 7 km/h
Temperatura: 31°C
Temp. rosišča: 13°C
Vlažnost: 33%
Tlak: 1013 hPa
Stanje: Jasno
Vidljivost: večja od 10 km
2018/07/19 09:30 LDPL 190930Z VRB04KT CAVOK 31/13 Q1013 BECMG 24008KT
 
LIPS - Istrana (it-Afb), Italy
Oddaljenost od postaje: ZJZ 136km
Podatki zajeti: 19/07/2018 10:55
Jasno
Jasno
 Veter iz smeri VJV
Veter: VJV 9 km/h
Temperatura: 29°C
Toplotni indeks: 32°C
Temp. rosišča: 22°C
Vlažnost: 66%
Tlak: 1013 hPa
Stanje: Jasno
Vidljivost: večja od 10 km
2018/07/19 08:55 LIPS 190855Z 11005KT CAVOK 29/22 Q1013 RMK SKC VIS MIN 9999 WIND THR26 04004KT WIND THR08 08005KT BLU
LIVD - Dobbiaco, Italy
Oddaljenost od postaje: ZSZ 137km
Podatki zajeti: 19/07/2018 10:55

 
2018/07/19 08:55 LIVD 190855Z ///02KT CAVOK 20/05 Q1021 RMK FEW FEW220 VIS MIN 9999
 
LJCE - Cerklje, Slovenia
Oddaljenost od postaje: V 139km
Podatki zajeti: 19/07/2018 11:30
Rahlo oblačno
Rahlo oblačno
 Veter iz smeri V
Veter: V 6 km/h
Temperatura: 27°C
Toplotni indeks: 27°C
Temp. rosišča: 15°C
Vlažnost: 48%
Tlak: 1014 hPa
Oblačnost: Rahlo oblačno
Vidljivost: 10 km
Podrobnosti o oblakih: Rahlo oblačno 1219 m
2018/07/19 09:30 LJCE 190930Z 10003KT 020V180 9999 FEW040 27/15 Q1014
LOXZ - Zeltweg (mil), Austria
Oddaljenost od postaje: SSV 147km
Podatki zajeti: 19/07/2018 11:20
Rahlo oblačno
Rahlo oblačno
 Veter iz smeri VJV
Veter: VJV 6 km/h
Temperatura: 25°C
Temp. rosišča: 10°C
Vlažnost: 39%
Tlak: 1016 hPa
Oblačnost: Rahlo oblačno
Podrobnosti o oblakih: Rahlo oblačno 2134 m
2018/07/19 09:20 LOXZ 190920Z 12003KT 30KM FEW070CU 25/10 Q1016 NOSIG